createdAt,value
2022-08-24T00:00:25.974Z,18.00
2022-08-24T00:02:52.920Z,17.90
2022-08-24T00:05:21.263Z,17.80
2022-08-24T00:07:49.202Z,17.60
2022-08-24T00:10:16.393Z,17.60
2022-08-24T00:12:43.599Z,17.50
2022-08-24T00:15:12.861Z,17.50
2022-08-24T00:17:40.233Z,17.50
2022-08-24T00:20:09.935Z,17.50
2022-08-24T00:22:36.810Z,17.40
2022-08-24T00:25:05.363Z,17.30
2022-08-24T00:27:32.056Z,17.20
2022-08-24T00:29:58.881Z,17.20
2022-08-24T00:32:25.473Z,17.10
2022-08-24T00:34:58.295Z,17.10
2022-08-24T00:37:26.615Z,17.10
2022-08-24T00:39:53.280Z,17.10
2022-08-24T00:42:20.030Z,17.00
2022-08-24T00:44:46.629Z,17.00
2022-08-24T00:47:39.568Z,16.90
2022-08-24T00:50:13.037Z,16.90
2022-08-24T00:52:43.783Z,16.90
2022-08-24T00:55:26.999Z,16.90
2022-08-24T00:57:59.656Z,16.90
2022-08-24T01:00:31.427Z,16.80
2022-08-24T01:03:04.375Z,16.80
2022-08-24T01:05:32.661Z,16.70
2022-08-24T01:08:00.721Z,16.70
2022-08-24T01:10:31.152Z,16.60
2022-08-24T01:13:03.569Z,16.60
2022-08-24T01:15:34.116Z,16.50
2022-08-24T01:18:19.942Z,16.50
2022-08-24T01:20:52.104Z,16.60
2022-08-24T01:23:39.267Z,16.70
2022-08-24T01:26:08.249Z,16.90
2022-08-24T01:28:39.866Z,16.90
2022-08-24T01:31:07.922Z,17.10
2022-08-24T01:33:34.625Z,17.10
2022-08-24T01:36:31.848Z,17.10
2022-08-24T01:39:02.264Z,17.20
2022-08-24T01:41:29.391Z,17.20
2022-08-24T01:43:57.258Z,17.30
2022-08-24T01:46:23.983Z,17.40
2022-08-24T01:48:50.663Z,17.50
2022-08-24T01:51:17.265Z,17.50
2022-08-24T01:53:43.889Z,17.60
2022-08-24T01:56:10.462Z,17.60
2022-08-24T01:58:42.678Z,17.70
2022-08-24T02:01:09.358Z,17.60
2022-08-24T02:03:35.943Z,17.70
2022-08-24T02:06:05.323Z,17.60
2022-08-24T02:08:36.442Z,17.60
2022-08-24T02:11:06.592Z,17.60
2022-08-24T02:13:33.193Z,17.50
2022-08-24T02:16:00.909Z,17.50
2022-08-24T02:18:27.667Z,17.50
2022-08-24T02:20:54.662Z,17.40
2022-08-24T02:23:21.901Z,17.30
2022-08-24T02:25:48.720Z,17.30
2022-08-24T02:28:15.355Z,17.20
2022-08-24T02:30:42.220Z,17.20
2022-08-24T02:33:08.865Z,17.10
2022-08-24T02:35:36.746Z,17.10
2022-08-24T02:38:03.531Z,17.00
2022-08-24T02:40:30.248Z,17.00
2022-08-24T02:42:56.936Z,17.00
2022-08-24T02:45:23.880Z,16.90
2022-08-24T02:47:50.590Z,16.90
2022-08-24T02:50:18.704Z,16.90
2022-08-24T02:52:46.473Z,16.90
2022-08-24T02:55:20.248Z,16.80
2022-08-24T02:57:47.850Z,16.80
2022-08-24T03:00:17.619Z,16.80
2022-08-24T03:02:44.357Z,16.70
2022-08-24T03:05:11.665Z,16.60
2022-08-24T03:07:38.329Z,16.60
2022-08-24T03:10:06.729Z,16.60
2022-08-24T03:12:34.730Z,16.60
2022-08-24T03:15:02.213Z,16.50
2022-08-24T03:17:33.680Z,16.50
2022-08-24T03:20:02.411Z,16.50
2022-08-24T03:22:29.017Z,16.40
2022-08-24T03:24:55.643Z,16.40
2022-08-24T03:27:22.567Z,16.40
2022-08-24T03:29:49.927Z,16.30
2022-08-24T03:32:17.713Z,16.30
2022-08-24T03:34:44.666Z,16.20
2022-08-24T03:37:11.256Z,16.20
2022-08-24T03:39:38.115Z,16.10
2022-08-24T03:42:05.559Z,16.10
2022-08-24T03:44:32.421Z,16.00
2022-08-24T03:46:59.311Z,16.00
2022-08-24T03:49:26.157Z,15.90
2022-08-24T03:51:53.146Z,15.80
2022-08-24T03:54:20.121Z,15.70
2022-08-24T03:56:46.718Z,15.70
2022-08-24T03:59:17.636Z,15.60
2022-08-24T04:01:46.473Z,15.50
2022-08-24T04:04:13.152Z,15.50
2022-08-24T04:06:44.154Z,15.40
2022-08-24T04:09:11.898Z,15.40
2022-08-24T04:11:41.324Z,15.40
2022-08-24T04:14:08.700Z,15.50
2022-08-24T04:16:46.915Z,15.50
2022-08-24T04:19:23.854Z,15.50
2022-08-24T04:21:50.467Z,15.40
2022-08-24T04:24:17.014Z,15.40
2022-08-24T04:26:45.275Z,15.40
2022-08-24T04:29:14.209Z,15.30
2022-08-24T04:31:42.837Z,15.30
2022-08-24T04:34:10.586Z,15.30
2022-08-24T04:36:37.255Z,15.20
2022-08-24T04:39:05.282Z,15.20
2022-08-24T04:41:32.000Z,15.20
2022-08-24T04:43:59.510Z,15.30
2022-08-24T04:46:26.659Z,15.20
2022-08-24T04:48:53.270Z,15.30
2022-08-24T04:51:20.916Z,15.30
2022-08-24T04:53:48.749Z,15.40
2022-08-24T04:56:23.138Z,15.40
2022-08-24T04:58:50.913Z,15.40
2022-08-24T05:01:21.444Z,15.40
2022-08-24T05:03:50.310Z,15.50
2022-08-24T05:06:21.091Z,15.50
2022-08-24T05:08:48.439Z,15.60
2022-08-24T05:11:17.338Z,15.70
2022-08-24T05:13:44.734Z,15.90
2022-08-24T05:16:15.688Z,16.00
2022-08-24T05:18:42.450Z,16.20
2022-08-24T05:21:11.258Z,16.20
2022-08-24T05:23:38.720Z,16.30
2022-08-24T05:26:12.733Z,16.40
2022-08-24T05:28:40.179Z,16.60
2022-08-24T05:31:07.843Z,16.70
2022-08-24T05:33:34.710Z,16.80
2022-08-24T05:36:01.776Z,16.90
2022-08-24T05:38:28.427Z,17.00
2022-08-24T05:40:55.053Z,17.10
2022-08-24T05:43:21.672Z,17.20
2022-08-24T05:45:48.283Z,17.30
2022-08-24T05:48:14.874Z,17.40
2022-08-24T05:50:41.455Z,17.50
2022-08-24T05:53:08.064Z,17.60
2022-08-24T05:55:38.171Z,17.70
2022-08-24T05:58:04.997Z,17.90
2022-08-24T06:00:33.395Z,17.90
2022-08-24T06:03:00.479Z,18.10
2022-08-24T06:05:27.232Z,18.20
2022-08-24T06:07:53.931Z,18.30
2022-08-24T06:10:36.319Z,18.40
2022-08-24T06:13:03.704Z,18.50
2022-08-24T06:15:30.369Z,18.50
2022-08-24T06:17:57.014Z,18.60
2022-08-24T06:20:24.174Z,18.70
2022-08-24T06:22:50.757Z,18.70
2022-08-24T06:25:35.903Z,18.90
2022-08-24T06:28:02.599Z,18.90
2022-08-24T06:30:30.620Z,19.00
2022-08-24T06:33:02.402Z,19.20
2022-08-24T06:35:29.446Z,19.30
2022-08-24T06:37:56.480Z,19.40
2022-08-24T06:40:25.760Z,19.60
2022-08-24T06:42:52.995Z,19.70
2022-08-24T06:45:19.691Z,19.80
2022-08-24T06:47:46.285Z,19.90
2022-08-24T06:50:13.631Z,20.00
2022-08-24T06:52:40.430Z,20.20
2022-08-24T06:55:07.777Z,20.30
2022-08-24T06:57:34.392Z,20.60
2022-08-24T07:00:01.139Z,20.80
2022-08-24T07:02:27.885Z,20.90
2022-08-24T07:04:54.554Z,21.10
2022-08-24T07:07:21.214Z,21.20
2022-08-24T07:09:47.849Z,21.40
2022-08-24T07:12:14.453Z,21.60
2022-08-24T07:14:41.072Z,21.70
2022-08-24T07:17:07.746Z,21.90
2022-08-24T07:19:34.353Z,22.00
2022-08-24T07:22:01.169Z,22.10
2022-08-24T07:24:27.803Z,22.20
2022-08-24T07:26:54.636Z,22.10
2022-08-24T07:32:07.984Z,22.40
2022-08-24T07:34:34.607Z,22.40
2022-08-24T07:37:01.298Z,22.50
2022-08-24T07:39:28.196Z,22.80
2022-08-24T07:44:41.553Z,23.10
2022-08-24T07:47:34.381Z,23.20
2022-08-24T07:49:54.795Z,23.30
2022-08-24T07:52:21.378Z,23.50
2022-08-24T07:54:48.007Z,23.60
2022-08-24T07:57:15.631Z,23.70
2022-08-24T07:59:42.362Z,23.80
2022-08-24T08:02:11.063Z,23.70
2022-08-24T08:04:37.878Z,23.80
2022-08-24T08:07:06.123Z,23.90
2022-08-24T08:09:33.546Z,23.80
2022-08-24T08:12:00.173Z,23.80
2022-08-24T08:14:26.782Z,23.80
2022-08-24T08:16:53.501Z,23.70
2022-08-24T09:03:58.667Z,25.30
2022-08-24T09:06:47.750Z,25.40
2022-08-24T09:09:38.408Z,25.30
2022-08-24T09:12:13.993Z,25.40
2022-08-24T09:14:43.669Z,25.60
2022-08-24T09:17:26.186Z,25.70
2022-08-24T09:28:14.599Z,26.30
2022-08-24T09:31:12.480Z,26.30
2022-08-24T09:33:48.096Z,26.30
2022-08-24T09:36:36.192Z,26.30
2022-08-24T09:39:21.223Z,26.40
2022-08-24T09:42:06.478Z,26.40
2022-08-24T09:44:51.863Z,26.70
2022-08-24T09:47:43.391Z,26.60
2022-08-24T09:50:28.844Z,27.10
2022-08-24T09:53:18.782Z,27.10
2022-08-24T09:56:11.910Z,27.20
2022-08-24T09:59:05.291Z,27.20
2022-08-24T10:01:53.865Z,27.20
2022-08-24T10:04:59.306Z,27.20
2022-08-24T10:07:36.219Z,27.20
2022-08-24T10:10:26.822Z,27.10
2022-08-24T10:13:18.478Z,27.50
2022-08-24T10:16:04.048Z,27.70
2022-08-24T10:18:54.714Z,27.80
2022-08-24T10:21:42.823Z,27.80
2022-08-24T10:24:09.517Z,27.80
2022-08-24T10:27:09.887Z,27.70
2022-08-24T10:30:03.470Z,27.60
2022-08-24T10:33:11.595Z,27.40
2022-08-24T10:36:06.209Z,27.60
2022-08-24T10:39:08.152Z,27.70
2022-08-24T10:42:11.780Z,27.60
2022-08-24T10:44:48.920Z,27.90
2022-08-24T10:47:28.318Z,28.00
2022-08-24T10:50:30.901Z,28.10
2022-08-24T10:53:08.486Z,28.10
2022-08-24T10:55:35.675Z,28.50
2022-08-24T10:58:39.826Z,28.40
2022-08-24T11:01:18.397Z,28.40
2022-08-24T11:04:02.025Z,28.30
2022-08-24T11:06:36.343Z,28.50
2022-08-24T11:09:06.007Z,28.80
2022-08-24T11:11:42.027Z,29.10
2022-08-24T11:14:24.453Z,28.90
2022-08-24T11:16:55.729Z,29.30
2022-08-24T11:19:27.280Z,29.60
2022-08-24T11:21:57.538Z,28.90
2022-08-24T11:24:29.237Z,29.00
2022-08-24T11:26:58.389Z,29.30
2022-08-24T11:29:54.741Z,29.40
2022-08-24T11:32:39.365Z,29.50
2022-08-24T11:35:32.367Z,29.20
2022-08-24T11:38:31.587Z,29.70
2022-08-24T11:41:15.637Z,30.00
2022-08-24T11:44:17.535Z,29.80
2022-08-24T11:46:58.070Z,30.00
2022-08-24T11:49:48.807Z,29.80
2022-08-24T11:52:58.471Z,29.70
2022-08-24T11:55:46.610Z,30.40
2022-08-24T11:58:37.380Z,29.90
2022-08-24T12:01:15.507Z,29.50
2022-08-24T12:03:57.116Z,29.70
2022-08-24T12:06:57.553Z,30.10
2022-08-24T12:09:46.823Z,29.90
2022-08-24T12:12:34.154Z,29.90
2022-08-24T12:15:12.617Z,29.80
2022-08-24T12:18:05.124Z,30.10
2022-08-24T12:20:41.937Z,30.30
2022-08-24T12:23:41.901Z,30.50
2022-08-24T12:26:19.282Z,30.20
2022-08-24T12:29:02.864Z,30.20
2022-08-24T12:31:47.183Z,29.80
2022-08-24T12:34:22.724Z,29.30
2022-08-24T12:37:21.537Z,29.30
2022-08-24T12:39:59.925Z,29.50
2022-08-24T12:42:43.383Z,29.50
2022-08-24T12:45:14.123Z,29.70
2022-08-24T12:48:02.283Z,30.20
2022-08-24T12:50:49.723Z,30.60
2022-08-24T12:53:26.914Z,31.00
2022-08-24T12:56:03.393Z,31.10
2022-08-24T12:58:54.558Z,30.70
2022-08-24T13:01:29.167Z,30.90
2022-08-24T13:04:32.252Z,31.00
2022-08-24T13:07:09.029Z,31.40
2022-08-24T13:09:45.609Z,31.60
2022-08-24T13:12:30.850Z,31.60
2022-08-24T13:15:21.182Z,30.80
2022-08-24T13:17:49.443Z,30.70
2022-08-24T13:20:23.414Z,31.00
2022-08-24T13:23:14.244Z,31.10
2022-08-24T13:25:55.672Z,30.70
2022-08-24T13:28:22.501Z,30.50
2022-08-24T13:31:10.787Z,31.10
2022-08-24T13:33:48.745Z,31.50
2022-08-24T13:36:45.743Z,31.10
2022-08-24T13:39:36.567Z,31.00
2022-08-24T13:42:36.176Z,31.30
2022-08-24T13:45:15.728Z,31.00
2022-08-24T13:47:48.823Z,31.40
2022-08-24T13:50:27.711Z,31.30
2022-08-24T13:54:05.771Z,30.80
2022-08-24T13:57:02.900Z,30.60
2022-08-24T14:00:01.645Z,31.10
2022-08-24T14:02:37.279Z,31.30
2022-08-24T14:05:33.687Z,31.10
2022-08-24T14:08:13.283Z,31.30
2022-08-24T14:10:44.339Z,31.60
2022-08-24T14:13:38.396Z,31.30
2022-08-24T14:16:51.383Z,30.80
2022-08-24T14:19:39.538Z,31.10
2022-08-24T14:22:20.204Z,30.40
2022-08-24T14:25:01.738Z,30.40
2022-08-24T14:27:39.132Z,30.90
2022-08-24T14:30:17.809Z,30.80
2022-08-24T14:33:36.455Z,31.00
2022-08-24T14:36:16.011Z,31.10
2022-08-24T14:38:54.326Z,30.70
2022-08-24T14:41:31.934Z,30.70
2022-08-24T14:44:07.519Z,30.50
2022-08-24T14:47:00.504Z,30.20
2022-08-24T14:49:38.889Z,30.40
2022-08-24T14:52:22.186Z,31.10
2022-08-24T14:55:06.393Z,31.00
2022-08-24T14:58:29.339Z,31.20
2022-08-24T15:01:14.762Z,30.90
2022-08-24T15:04:05.764Z,30.90
2022-08-24T15:06:54.473Z,30.30
2022-08-24T15:09:28.189Z,29.60
2022-08-24T15:12:04.840Z,29.90
2022-08-24T15:14:46.490Z,30.20
2022-08-24T15:17:20.936Z,30.40
2022-08-24T15:19:51.527Z,30.20
2022-08-24T15:22:28.570Z,30.10
2022-08-24T15:24:59.278Z,30.30
2022-08-24T15:27:41.284Z,30.30
2022-08-24T15:30:18.380Z,30.20
2022-08-24T15:32:53.051Z,30.10
2022-08-24T15:35:26.741Z,30.40
2022-08-24T15:37:54.683Z,30.40
2022-08-24T15:40:29.760Z,30.20
2022-08-24T15:43:03.344Z,30.40
2022-08-24T15:45:32.393Z,30.20
2022-08-24T15:48:00.711Z,30.40
2022-08-24T15:50:34.819Z,30.20
2022-08-24T15:53:29.306Z,30.20
2022-08-24T15:55:56.591Z,29.80
2022-08-24T15:58:38.543Z,29.70
2022-08-24T16:01:29.961Z,29.90
2022-08-24T16:04:23.864Z,29.80
2022-08-24T16:06:50.483Z,29.50
2022-08-24T16:09:27.682Z,29.30
2022-08-24T16:12:02.176Z,29.50
2022-08-24T16:14:31.286Z,29.80
2022-08-24T16:16:59.649Z,30.10
2022-08-24T16:19:33.802Z,29.40
2022-08-24T16:22:05.066Z,30.20
2022-08-24T16:24:36.135Z,30.20
2022-08-24T16:27:13.311Z,30.80
2022-08-24T16:29:41.232Z,30.90
2022-08-24T16:32:22.519Z,31.30
2022-08-24T16:35:10.771Z,29.80
2022-08-24T16:37:39.205Z,29.30
2022-08-24T16:40:08.393Z,29.00
2022-08-24T16:42:36.365Z,28.70
2022-08-24T16:45:06.025Z,28.40
2022-08-24T16:47:32.595Z,28.20
2022-08-24T16:49:59.230Z,28.00
2022-08-24T16:52:25.827Z,28.10
2022-08-24T16:54:52.458Z,27.90
2022-08-24T16:57:22.808Z,27.90
2022-08-24T16:59:51.853Z,27.80
2022-08-24T17:02:19.879Z,27.90
2022-08-24T17:04:46.582Z,27.80
2022-08-24T17:07:17.474Z,27.70
2022-08-24T17:09:46.975Z,27.70
2022-08-24T17:12:13.987Z,27.70
2022-08-24T17:14:41.157Z,27.60
2022-08-24T17:17:10.059Z,27.60
2022-08-24T17:19:37.439Z,27.50
2022-08-24T17:22:05.331Z,27.40
2022-08-24T17:24:32.776Z,27.40
2022-08-24T17:26:59.795Z,27.30
2022-08-24T17:29:26.433Z,27.20
2022-08-24T17:31:53.706Z,27.20
2022-08-24T17:34:21.975Z,27.10
2022-08-24T17:36:54.501Z,27.00
2022-08-24T17:39:23.916Z,27.00
2022-08-24T17:41:52.234Z,26.90
2022-08-24T17:44:24.900Z,26.80
2022-08-24T17:46:53.868Z,26.70
2022-08-24T17:49:21.122Z,26.60
2022-08-24T17:51:49.188Z,26.60
2022-08-24T17:54:16.849Z,26.60
2022-08-24T17:56:46.358Z,26.50
2022-08-24T17:59:22.948Z,26.50
2022-08-24T18:01:55.049Z,26.40
2022-08-24T18:04:25.664Z,26.40
2022-08-24T18:06:52.661Z,26.30
2022-08-24T18:09:35.378Z,26.20
2022-08-24T18:12:05.812Z,26.20
2022-08-24T18:14:34.380Z,26.10
2022-08-24T18:17:04.273Z,26.10
2022-08-24T18:19:32.753Z,25.90
2022-08-24T18:21:59.736Z,25.80
2022-08-24T18:24:26.323Z,25.70
2022-08-24T18:26:52.940Z,25.70
2022-08-24T18:29:21.371Z,25.60
2022-08-24T18:31:48.501Z,25.50
2022-08-24T18:34:21.005Z,25.50
2022-08-24T18:36:48.219Z,25.50
2022-08-24T18:39:14.818Z,25.40
2022-08-24T18:41:49.167Z,25.30
2022-08-24T18:44:19.997Z,25.30
2022-08-24T18:46:47.750Z,25.30
2022-08-24T18:49:18.615Z,25.10
2022-08-24T18:51:48.015Z,25.10
2022-08-24T18:54:17.918Z,25.00
2022-08-24T18:56:45.003Z,25.00
2022-08-24T18:59:14.523Z,24.80
2022-08-24T19:02:04.899Z,24.70
2022-08-24T19:04:33.204Z,24.70
2022-08-24T19:07:00.541Z,24.50
2022-08-24T19:09:29.702Z,24.40
2022-08-24T19:12:00.278Z,24.30
2022-08-24T19:14:26.885Z,24.20
2022-08-24T19:16:53.472Z,24.20
2022-08-24T19:19:22.127Z,24.10
2022-08-24T19:21:49.372Z,24.00
2022-08-24T19:24:19.036Z,23.80
2022-08-24T19:26:45.652Z,23.70
2022-08-24T19:29:12.281Z,23.50
2022-08-24T19:31:39.051Z,23.50
2022-08-24T19:34:06.684Z,23.30
2022-08-24T19:36:33.329Z,23.20
2022-08-24T19:39:00.154Z,23.10
2022-08-24T19:41:30.308Z,23.10
2022-08-24T19:44:27.353Z,22.90
2022-08-24T19:46:55.489Z,22.90
2022-08-24T19:49:22.606Z,22.80
2022-08-24T19:51:50.614Z,22.70
2022-08-24T19:54:17.868Z,22.60
2022-08-24T19:56:45.338Z,22.50
2022-08-24T19:59:27.684Z,22.40
2022-08-24T20:01:54.344Z,22.40
2022-08-24T20:04:21.176Z,22.30
2022-08-24T20:06:47.966Z,22.30
2022-08-24T20:09:14.991Z,22.40
2022-08-24T20:11:41.630Z,22.40
2022-08-24T20:14:08.307Z,22.40
2022-08-24T20:16:42.044Z,22.40
2022-08-24T20:19:11.072Z,22.40
2022-08-24T20:21:38.525Z,22.40
2022-08-24T20:24:06.286Z,22.50
2022-08-24T20:26:40.218Z,22.50
2022-08-24T20:29:07.178Z,22.40
2022-08-24T20:31:33.911Z,22.40
2022-08-24T20:34:00.574Z,22.30
2022-08-24T20:36:31.988Z,22.20
2022-08-24T20:39:01.294Z,22.20
2022-08-24T20:41:28.329Z,22.20
2022-08-24T20:43:56.514Z,22.10
2022-08-24T20:46:24.642Z,22.20
2022-08-24T20:48:55.422Z,22.30
2022-08-24T20:51:22.841Z,22.30
2022-08-24T20:53:49.532Z,22.30
2022-08-24T20:56:28.795Z,22.30
2022-08-24T20:59:02.019Z,22.30
2022-08-24T21:01:30.053Z,22.40
2022-08-24T21:04:00.279Z,22.40
2022-08-24T21:06:30.099Z,22.40
2022-08-24T21:08:57.122Z,22.40
2022-08-24T21:11:23.745Z,22.30
2022-08-24T21:13:50.332Z,22.20
2022-08-24T21:16:17.082Z,22.10
2022-08-24T21:18:44.476Z,22.10
2022-08-24T21:21:11.055Z,22.00
2022-08-24T21:23:37.744Z,22.00
2022-08-24T21:26:08.301Z,21.90
2022-08-24T21:28:35.526Z,21.80
2022-08-24T21:31:06.207Z,21.70
2022-08-24T21:33:52.406Z,21.60
2022-08-24T21:36:20.941Z,21.60
2022-08-24T21:38:47.559Z,21.60
2022-08-24T21:41:14.142Z,21.50
2022-08-24T21:43:40.712Z,21.40
2022-08-24T21:46:07.498Z,21.30
2022-08-24T21:48:34.135Z,21.30
2022-08-24T21:51:00.811Z,21.20
2022-08-24T21:53:28.583Z,21.20
2022-08-24T21:55:55.919Z,21.10
2022-08-24T21:58:23.965Z,21.10
2022-08-24T22:00:51.676Z,21.00
2022-08-24T22:03:18.406Z,21.00
2022-08-24T22:05:45.388Z,20.90
2022-08-24T22:08:12.099Z,20.90
2022-08-24T22:10:38.709Z,20.90
2022-08-24T22:13:05.582Z,20.80
2022-08-24T22:15:33.058Z,20.70
2022-08-24T22:18:00.298Z,20.80
2022-08-24T22:20:27.297Z,20.60
2022-08-24T22:22:53.918Z,20.60
2022-08-24T22:25:20.729Z,20.60
2022-08-24T22:27:47.663Z,20.40
2022-08-24T22:30:17.000Z,20.30
2022-08-24T22:32:44.925Z,20.30
2022-08-24T22:35:11.937Z,20.30
2022-08-24T22:37:39.008Z,20.30
2022-08-24T22:40:07.114Z,20.30
2022-08-24T22:42:39.477Z,20.40
2022-08-24T22:45:06.678Z,20.40
2022-08-24T22:47:33.891Z,20.40
2022-08-24T22:50:00.556Z,20.40
2022-08-24T22:52:27.394Z,20.40
2022-08-24T22:54:56.858Z,20.30
2022-08-24T22:57:24.755Z,20.30
2022-08-24T22:59:53.691Z,20.30
2022-08-24T23:02:20.601Z,20.20
2022-08-24T23:04:51.099Z,20.30
2022-08-24T23:07:18.134Z,20.20
2022-08-24T23:09:45.646Z,20.20
2022-08-24T23:12:19.321Z,20.10
2022-08-24T23:14:46.401Z,20.10
2022-08-24T23:17:13.186Z,20.10
2022-08-24T23:19:58.494Z,19.90
2022-08-24T23:22:25.765Z,19.90
2022-08-24T23:24:52.573Z,20.00
2022-08-24T23:27:19.721Z,20.00
2022-08-24T23:29:47.020Z,20.10
2022-08-24T23:32:17.632Z,20.10
2022-08-24T23:34:46.535Z,20.20
2022-08-24T23:37:15.507Z,20.10
2022-08-24T23:39:42.507Z,20.10
2022-08-24T23:42:09.226Z,20.10
2022-08-24T23:44:35.886Z,20.00
2022-08-24T23:47:03.373Z,20.00
2022-08-24T23:49:30.811Z,20.00
2022-08-24T23:51:58.095Z,20.00
2022-08-24T23:54:25.726Z,19.90
2022-08-24T23:56:53.704Z,19.90
2022-08-24T23:59:24.458Z,19.90
